Time;durP1;ratioP1;P1;durP2;ratioP2;P2;SDS_P1;SDS_P2;PMS_P1;PMS_P2;Temp;Humidity;BMP_temperature;BMP_pressure;BME280_temperature;BME280_humidity;BME280_pressure;Samples;Min_cycle;Max_cycle;Signal;HPM_P1;HPM_P2
2022/12/22 03:28:08;;;;;;;1.17;1.08;;;16.80;53.10;;;;;;5062520;28;45270;-76
2022/12/22 03:30:35;;;;;;;2.25;1.17;;;16.70;53.10;;;;;;5065060;28;45255;-75
2022/12/22 03:33:03;;;;;;;1.40;1.30;;;16.70;53.10;;;;;;5064967;28;45371;-76
2022/12/22 03:35:30;;;;;;;1.52;1.10;;;16.70;53.10;;;;;;5065336;27;45113;-76
2022/12/22 03:38:02;;;;;;;1.20;1.00;;;16.70;53.10;;;;;;5064861;28;45211;-77
2022/12/22 03:40:29;;;;;;;0.93;0.80;;;16.70;53.10;;;;;;5064824;27;45184;-76
2022/12/22 03:48:25;;;;;;;1.13;1.05;;;16.70;53.10;;;;;;5062263;28;45174;-77
2022/12/22 03:50:52;;;;;;;2.25;1.20;;;16.70;53.10;;;;;;5064961;27;45149;-76
2022/12/22 03:53:19;;;;;;;1.83;1.08;;;16.70;53.10;;;;;;5062003;27;45275;-76
2022/12/22 03:55:46;;;;;;;1.60;1.00;;;16.70;53.20;;;;;;5064986;28;45381;-76
2022/12/22 03:58:13;;;;;;;0.90;0.90;;;16.70;53.20;;;;;;5064622;28;45467;-76
2022/12/22 04:00:39;;;;;;;1.27;1.17;;;16.70;53.10;;;;;;5064466;28;45198;-77
2022/12/22 04:03:06;;;;;;;1.75;0.90;;;16.70;53.20;;;;;;5062295;28;45349;-76
2022/12/22 04:05:34;;;;;;;1.25;1.25;;;16.70;53.10;;;;;;5064945;28;45182;-76
2022/12/22 04:08:01;;;;;;;2.08;1.15;;;16.70;53.80;;;;;;5064440;27;45637;-76
2022/12/22 04:13:17;;;;;;;1.70;0.80;;;16.70;53.20;;;;;;5083701;28;45276;-77
2022/12/22 04:15:44;;;;;;;1.75;1.00;;;16.70;53.20;;;;;;5064772;27;45183;-77
2022/12/22 04:18:11;;;;;;;0.80;0.80;;;16.70;53.20;;;;;;5064369;28;46416;-76
2022/12/22 04:20:39;;;;;;;1.17;0.90;;;16.70;53.20;;;;;;5063991;28;45337;-76
2022/12/22 04:23:06;;;;;;;1.15;0.98;;;16.70;53.80;;;;;;5063805;28;45137;-77
2022/12/22 04:25:33;;;;;;;0.88;0.85;;;16.70;53.20;;;;;;5064761;28;45340;-77
2022/12/22 04:27:59;;;;;;;1.80;0.80;;;16.60;53.10;;;;;;5063886;28;46401;-77
2022/12/22 04:30:26;;;;;;;1.80;1.08;;;16.70;53.30;;;;;;5064299;28;45221;-77
2022/12/22 04:32:53;;;;;;;0.88;0.80;;;16.70;53.10;;;;;;5064313;27;45221;-77
2022/12/22 04:35:20;;;;;;;1.35;0.90;;;16.80;53.60;;;;;;5064447;28;45394;-77
2022/12/22 04:37:48;;;;;;;2.33;1.00;;;16.90;52.80;;;;;;5064167;27;45457;-77
2022/12/22 04:40:15;;;;;;;1.00;0.95;;;16.90;52.70;;;;;;5064324;27;45509;-75
2022/12/22 04:42:42;;;;;;;0.80;0.80;;;17.00;52.50;;;;;;5064249;28;45283;-75
2022/12/22 04:45:10;;;;;;;0.88;0.88;;;17.00;52.40;;;;;;5064436;28;45328;-75
2022/12/22 04:47:36;;;;;;;1.10;0.95;;;17.00;52.20;;;;;;5063914;28;47736;-77
2022/12/22 04:50:03;;;;;;;1.67;0.90;;;17.10;52.20;;;;;;5064025;28;45224;-76
2022/12/22 04:52:30;;;;;;;1.20;0.90;;;17.10;52.10;;;;;;5064064;27;45421;-76
2022/12/22 04:54:58;;;;;;;1.73;0.95;;;17.10;52.00;;;;;;5064454;27;45402;-77
2022/12/22 04:57:25;;;;;;;1.25;0.85;;;17.10;52.00;;;;;;5064010;28;46028;-77
2022/12/22 04:59:52;;;;;;;1.70;1.15;;;17.20;52.60;;;;;;5064222;28;45225;-77
2022/12/22 05:02:19;;;;;;;0.80;0.80;;;17.20;51.90;;;;;;5063876;28;45317;-77
2022/12/22 05:04:46;;;;;;;0.93;0.80;;;17.20;51.90;;;;;;5063833;28;45448;-78
2022/12/22 05:07:12;;;;;;;1.55;0.85;;;17.20;51.90;;;;;;5062843;28;45366;-77
2022/12/22 05:09:39;;;;;;;1.90;0.80;;;17.20;51.90;;;;;;5063757;27;45296;-77
2022/12/22 05:14:48;;;;;;;1.27;0.75;;;17.20;51.90;;;;;;5063613;27;45278;-77
2022/12/22 05:17:15;;;;;;;1.05;0.90;;;17.20;51.90;;;;;;5063769;28;46513;-77
2022/12/22 05:19:42;;;;;;;1.40;0.80;;;17.20;51.90;;;;;;5063575;28;45179;-77
2022/12/22 05:22:09;;;;;;;1.70;0.93;;;17.20;51.90;;;;;;5063563;27;45152;-77
2022/12/22 05:24:35;;;;;;;1.95;0.77;;;17.20;51.90;;;;;;5063723;28;45264;-78
2022/12/22 05:27:02;;;;;;;2.30;0.85;;;17.20;51.90;;;;;;5063141;28;46516;-77
2022/12/22 05:29:31;;;;;;;1.00;0.68;;;17.20;51.90;;;;;;5063311;28;45256;-77
2022/12/22 05:31:57;;;;;;;1.27;0.80;;;17.20;51.90;;;;;;5063806;27;45247;-76
2022/12/22 05:34:24;;;;;;;1.05;0.70;;;17.20;51.90;;;;;;5066679;28;45334;-76
2022/12/22 05:36:51;;;;;;;1.30;0.80;;;17.20;51.90;;;;;;5066351;27;46352;-76
2022/12/22 05:39:18;;;;;;;2.58;0.82;;;17.10;51.90;;;;;;5066350;28;45358;-75
2022/12/22 05:41:45;;;;;;;1.40;0.90;;;17.10;52.00;;;;;;5066389;28;45132;-78
2022/12/22 05:44:12;;;;;;;1.08;0.70;;;17.10;52.00;;;;;;5066702;27;45528;-77
2022/12/22 05:46:40;;;;;;;2.05;0.95;;;17.10;52.00;;;;;;5066121;28;46670;-77
2022/12/22 05:49:07;;;;;;;0.98;0.80;;;17.10;52.00;;;;;;5066151;27;46289;-77
2022/12/22 05:51:34;;;;;;;1.33;0.90;;;17.10;52.10;;;;;;5066256;28;45296;-75
2022/12/22 05:54:00;;;;;;;1.00;0.80;;;17.10;52.10;;;;;;5065597;27;45454;-75
2022/12/22 05:56:27;;;;;;;1.20;0.98;;;17.00;52.10;;;;;;5066083;28;45434;-74
2022/12/22 05:58:54;;;;;;;1.15;0.88;;;17.00;52.10;;;;;;5066199;28;45194;-74
2022/12/22 06:01:21;;;;;;;1.95;0.93;;;17.00;52.10;;;;;;5066189;28;45328;-74
2022/12/22 06:03:49;;;;;;;1.77;0.70;;;17.00;52.10;;;;;;5066430;28;45341;-74
2022/12/22 06:06:16;;;;;;;2.08;1.10;;;17.00;52.20;;;;;;5066153;27;46207;-74
2022/12/22 06:08:43;;;;;;;1.58;0.98;;;17.00;52.20;;;;;;5066125;27;45128;-74
2022/12/22 06:11:10;;;;;;;2.60;0.90;;;17.00;52.20;;;;;;5066221;27;45233;-74
2022/12/22 06:13:36;;;;;;;0.70;0.70;;;17.00;52.30;;;;;;5066007;28;45468;-74
2022/12/22 06:16:03;;;;;;;0.73;0.68;;;17.00;52.90;;;;;;5065848;28;46639;-74
2022/12/22 06:18:30;;;;;;;2.38;1.00;;;17.00;52.30;;;;;;5065918;28;45308;-74
2022/12/22 06:20:58;;;;;;;1.55;0.90;;;17.00;52.30;;;;;;5065937;28;45120;-74
2022/12/22 06:23:25;;;;;;;2.00;0.90;;;17.00;52.30;;;;;;5066006;27;45347;-74
2022/12/22 06:25:55;;;;;;;1.50;0.80;;;16.90;52.30;;;;;;5065753;28;45520;-74
2022/12/22 06:28:22;;;;;;;1.65;0.90;;;16.90;52.30;;;;;;5065730;28;45200;-74
2022/12/22 06:30:49;;;;;;;2.03;1.13;;;16.90;52.30;;;;;;5065836;28;45197;-74
2022/12/22 06:33:16;;;;;;;3.13;1.00;;;16.90;52.40;;;;;;5065906;28;45327;-74
2022/12/22 06:35:42;;;;;;;2.67;1.00;;;16.90;52.40;;;;;;5064942;28;46721;-72
2022/12/22 06:38:11;;;;;;;1.55;1.08;;;16.90;52.40;;;;;;5065120;28;45378;-74
2022/12/22 06:40:37;;;;;;;2.47;1.10;;;16.90;52.40;;;;;;5065793;28;45231;-74
2022/12/22 06:43:09;;;;;;;2.33;1.20;;;16.90;52.40;;;;;;5065502;28;45380;-74
2022/12/22 06:45:36;;;;;;;1.38;1.27;;;16.90;52.50;;;;;;5065494;27;46500;-75
2022/12/22 06:48:03;;;;;;;1.50;1.20;;;16.90;52.50;;;;;;5065564;28;45223;-74
2022/12/22 06:50:30;;;;;;;2.47;1.50;;;16.90;52.50;;;;;;5065545;28;45247;-74
2022/12/22 06:52:57;;;;;;;2.97;1.50;;;16.90;52.50;;;;;;5065667;28;45415;-74
2022/12/22 06:55:25;;;;;;;2.30;1.70;;;16.90;52.60;;;;;;5065121;27;47381;-74
2022/12/22 06:57:52;;;;;;;6.30;1.65;;;16.90;52.60;;;;;;5062841;27;45156;-77
2022/12/22 07:00:19;;;;;;;1.63;1.50;;;16.80;52.60;;;;;;5065625;28;45209;-77
2022/12/22 07:02:46;;;;;;;4.78;2.05;;;16.90;52.60;;;;;;5065918;28;45403;-77
2022/12/22 07:05:14;;;;;;;2.10;1.90;;;16.80;52.60;;;;;;5065410;27;45466;-78
2022/12/22 07:07:41;;;;;;;3.13;1.83;;;16.80;53.20;;;;;;5065687;27;45185;-78
2022/12/22 07:10:09;;;;;;;2.97;1.88;;;16.80;52.60;;;;;;5065482;27;45136;-78
2022/12/22 07:12:37;;;;;;;2.72;2.13;;;16.80;52.60;;;;;;5065369;28;45295;-78
2022/12/22 07:15:04;;;;;;;3.20;1.95;;;16.80;52.60;;;;;;5065198;28;45534;-74
2022/12/22 07:17:31;;;;;;;2.58;2.00;;;16.80;52.60;;;;;;5065151;28;45242;-74
2022/12/22 07:19:58;;;;;;;3.20;1.95;;;16.80;52.60;;;;;;5065527;27;45191;-73
2022/12/22 07:22:24;;;;;;;2.70;2.20;;;16.80;52.60;;;;;;5064429;28;45160;-75
2022/12/22 07:24:51;;;;;;;3.95;2.00;;;16.80;52.70;;;;;;5064980;28;45332;-74
2022/12/22 07:27:18;;;;;;;6.80;2.40;;;16.80;52.70;;;;;;5064671;28;45300;-74
2022/12/22 07:29:46;;;;;;;3.88;2.25;;;16.80;52.70;;;;;;5062571;28;45311;-75
2022/12/22 07:32:13;;;;;;;3.88;2.13;;;16.80;52.70;;;;;;5065363;28;45105;-75
2022/12/22 07:34:40;;;;;;;4.05;2.78;;;16.80;52.70;;;;;;5064740;27;46672;-75
2022/12/22 07:37:07;;;;;;;5.40;2.38;;;16.80;52.80;;;;;;5065031;27;45388;-75
2022/12/22 07:39:33;;;;;;;3.85;2.50;;;16.80;52.80;;;;;;5065208;28;45345;-75
2022/12/22 07:44:46;;;;;;;3.70;2.72;;;16.80;52.90;;;;;;5062313;28;45730;-75
2022/12/22 07:47:13;;;;;;;4.07;2.45;;;16.80;52.90;;;;;;5065187;27;45108;-75
2022/12/22 07:52:23;;;;;;;4.28;2.78;;;16.70;52.80;;;;;;5062470;28;45325;-75
2022/12/22 07:54:50;;;;;;;3.65;2.88;;;16.70;52.80;;;;;;5063683;28;47840;-75
2022/12/22 07:57:17;;;;;;;4.38;2.42;;;16.70;52.80;;;;;;5062067;28;45386;-75
2022/12/22 07:59:45;;;;;;;3.17;2.47;;;16.70;52.90;;;;;;5064852;28;45271;-75
2022/12/22 08:02:12;;;;;;;3.35;2.47;;;16.70;52.90;;;;;;5064910;28;45121;-75
2022/12/22 08:04:39;;;;;;;5.43;2.95;;;16.70;52.90;;;;;;5064494;28;46771;-75
2022/12/22 08:07:06;;;;;;;3.38;2.58;;;16.70;53.00;;;;;;5064600;28;45117;-75
2022/12/22 08:09:32;;;;;;;3.60;2.85;;;16.70;52.90;;;;;;5064916;27;45242;-75
2022/12/22 08:11:59;;;;;;;4.53;2.75;;;16.70;53.60;;;;;;5064714;28;45372;-75
2022/12/22 08:14:26;;;;;;;3.13;2.60;;;16.70;53.00;;;;;;5063660;28;45235;-74
2022/12/22 08:16:54;;;;;;;6.43;2.72;;;16.70;53.00;;;;;;5064648;28;45163;-74
2022/12/22 08:19:21;;;;;;;5.28;3.15;;;16.70;53.00;;;;;;5064815;28;45279;-74
2022/12/22 08:21:48;;;;;;;4.63;2.65;;;16.70;53.10;;;;;;5064739;27;45308;-74
2022/12/22 08:24:14;;;;;;;5.63;3.55;;;16.70;53.10;;;;;;5064412;28;46656;-74
2022/12/22 08:26:42;;;;;;;8.10;2.97;;;16.70;53.10;;;;;;5064142;28;45292;-74
2022/12/22 08:29:11;;;;;;;5.20;2.92;;;16.70;53.10;;;;;;5064550;28;45222;-74
2022/12/22 08:31:37;;;;;;;6.50;3.30;;;16.70;53.10;;;;;;5064732;28;45423;-74
2022/12/22 08:34:06;;;;;;;6.28;3.33;;;16.70;53.80;;;;;;5064039;28;45457;-74
2022/12/22 08:36:35;;;;;;;8.38;3.67;;;16.70;53.10;;;;;;5064169;27;45149;-74
2022/12/22 08:39:02;;;;;;;7.53;3.38;;;16.70;53.20;;;;;;5064414;28;45195;-74
2022/12/22 08:44:09;;;;;;;7.03;3.53;;;16.70;53.20;;;;;;5063544;27;46111;-74
2022/12/22 08:46:36;;;;;;;7.57;3.50;;;16.70;53.20;;;;;;5061484;28;45197;-74
2022/12/22 08:49:05;;;;;;;5.05;3.80;;;16.70;53.30;;;;;;5064030;27;45324;-75
2022/12/22 08:51:31;;;;;;;11.15;4.03;;;16.60;53.20;;;;;;5064249;27;45288;-74
2022/12/22 08:53:58;;;;;;;8.52;3.45;;;16.60;53.20;;;;;;5063733;28;46707;-74
2022/12/22 08:56:25;;;;;;;5.32;3.88;;;16.70;53.30;;;;;;5064088;28;45257;-74
2022/12/22 08:58:52;;;;;;;6.70;3.88;;;16.70;53.10;;;;;;5064100;28;45188;-74
2022/12/22 09:01:19;;;;;;;7.00;3.70;;;16.80;53.00;;;;;;5064168;27;45255;-75
2022/12/22 09:03:50;;;;;;;8.90;3.50;;;16.90;52.80;;;;;;5062935;28;46382;-75
2022/12/22 09:06:18;;;;;;;6.63;3.60;;;16.90;52.60;;;;;;5063686;28;45233;-75
2022/12/22 09:08:45;;;;;;;8.57;3.78;;;17.00;52.50;;;;;;5063893;28;45259;-74
2022/12/22 09:11:12;;;;;;;7.82;3.80;;;17.10;52.40;;;;;;5064083;28;45374;-74
2022/12/22 09:13:38;;;;;;;6.18;3.38;;;17.10;52.30;;;;;;5063707;27;45328;-74
2022/12/22 09:16:06;;;;;;;7.50;4.20;;;17.20;52.20;;;;;;5063606;28;45189;-74
2022/12/22 09:18:32;;;;;;;7.65;3.80;;;17.20;52.10;;;;;;5063799;27;45268;-74
2022/12/22 09:20:59;;;;;;;6.32;3.83;;;17.20;52.10;;;;;;5063648;28;45269;-74
2022/12/22 09:23:27;;;;;;;7.28;3.40;;;17.20;52.00;;;;;;5063252;28;45553;-74
2022/12/22 09:25:54;;;;;;;6.45;3.58;;;17.30;52.00;;;;;;5063107;27;45206;-74
2022/12/22 09:28:21;;;;;;;8.27;3.55;;;17.20;52.00;;;;;;5063710;27;45181;-74
2022/12/22 09:30:49;;;;;;;6.35;3.75;;;17.30;52.00;;;;;;5063822;28;45243;-74
2022/12/22 09:33:16;;;;;;;5.68;3.45;;;17.30;52.00;;;;;;5063410;27;47715;-74
2022/12/22 09:35:43;;;;;;;7.05;3.70;;;17.30;52.00;;;;;;5063306;28;45256;-74
2022/12/22 09:38:10;;;;;;;6.70;3.53;;;17.30;51.90;;;;;;5063445;28;45246;-74
2022/12/22 09:40:38;;;;;;;7.15;3.50;;;17.30;51.90;;;;;;5063784;28;45155;-74
2022/12/22 09:43:05;;;;;;;7.72;3.75;;;17.30;52.00;;;;;;5063009;28;45508;-74
2022/12/22 09:45:32;;;;;;;6.95;3.35;;;17.30;52.00;;;;;;5063036;28;45297;-73
2022/12/22 09:47:59;;;;;;;8.45;3.40;;;17.30;52.00;;;;;;5062452;27;45223;-74
2022/12/22 09:50:26;;;;;;;6.57;3.17;;;17.30;52.00;;;;;;5063479;27;45200;-74
2022/12/22 09:52:54;;;;;;;8.60;3.28;;;17.30;52.00;;;;;;5062623;27;45449;-74
2022/12/22 09:55:32;;;;;;;8.85;3.67;;;17.30;52.00;;;;;;5062820;27;45288;-74
2022/12/22 09:58:00;;;;;;;7.10;3.53;;;17.30;52.00;;;;;;5063076;28;45207;-74
2022/12/22 10:00:27;;;;;;;7.20;3.00;;;17.30;52.00;;;;;;5060618;28;45231;-74
2022/12/22 10:02:57;;;;;;;6.07;3.22;;;17.30;52.00;;;;;;5062806;27;46199;-74
2022/12/22 10:05:28;;;;;;;5.47;3.20;;;17.30;52.00;;;;;;5062982;28;45137;-74
2022/12/22 10:07:59;;;;;;;4.18;2.78;;;17.30;52.10;;;;;;5062837;27;45407;-74
2022/12/22 10:10:27;;;;;;;6.38;3.13;;;17.30;52.10;;;;;;5063335;28;45201;-74
2022/12/22 10:12:54;;;;;;;5.50;3.15;;;17.30;52.70;;;;;;5062702;27;47035;-74
2022/12/22 10:15:23;;;;;;;4.32;3.00;;;17.20;52.00;;;;;;5062664;27;45273;-74
2022/12/22 10:17:50;;;;;;;4.88;3.00;;;17.20;52.00;;;;;;5063245;27;45270;-74
2022/12/22 10:20:24;;;;;;;5.35;2.92;;;17.20;52.00;;;;;;5066306;28;45308;-74
2022/12/22 10:22:52;;;;;;;5.22;3.03;;;17.20;52.00;;;;;;5056840;27;46732;-74
2022/12/22 10:25:32;;;;;;;8.15;2.97;;;17.20;52.60;;;;;;5065792;28;45554;-74
2022/12/22 10:28:00;;;;;;;5.13;3.13;;;17.20;52.10;;;;;;5065530;27;45143;-74
2022/12/22 10:30:30;;;;;;;6.10;3.13;;;17.20;52.10;;;;;;5066098;27;45243;-74
2022/12/22 10:33:02;;;;;;;5.53;2.65;;;17.20;52.10;;;;;;5065878;28;45295;-73
2022/12/22 10:35:46;;;;;;;5.10;2.40;;;17.20;52.10;;;;;;5065464;28;45337;-74
2022/12/22 10:38:24;;;;;;;5.25;3.00;;;17.20;52.20;;;;;;5065966;28;45223;-74
2022/12/22 10:40:53;;;;;;;5.07;2.47;;;17.20;52.20;;;;;;5066373;27;45279;-74
2022/12/22 10:43:22;;;;;;;6.60;2.75;;;17.20;52.20;;;;;;5065560;27;46723;-74
2022/12/22 10:45:50;;;;;;;4.85;2.67;;;17.20;52.20;;;;;;5065632;27;45286;-77
2022/12/22 10:48:17;;;;;;;6.47;2.65;;;17.20;52.20;;;;;;5065808;28;45286;-77
2022/12/22 10:50:45;;;;;;;5.13;2.88;;;17.20;52.30;;;;;;5065807;28;45398;-78
2022/12/22 10:53:12;;;;;;;2.53;2.20;;;17.20;52.30;;;;;;5065442;28;46758;-77
2022/12/22 10:55:39;;;;;;;5.97;2.58;;;17.20;52.20;;;;;;5064934;28;45449;-75
2022/12/22 10:58:15;;;;;;;4.13;2.40;;;17.20;52.30;;;;;;5064787;27;45286;-78
2022/12/22 11:00:43;;;;;;;3.95;2.42;;;17.20;52.30;;;;;;5065055;27;45336;-75
2022/12/22 11:03:13;;;;;;;5.20;2.60;;;17.20;52.30;;;;;;5065193;28;46392;-77
2022/12/22 11:05:40;;;;;;;4.18;2.47;;;17.20;52.30;;;;;;5065265;28;45304;-77
2022/12/22 11:08:15;;;;;;;4.85;2.60;;;17.20;52.40;;;;;;5065479;28;45262;-77
2022/12/22 11:10:43;;;;;;;4.80;2.50;;;17.20;52.40;;;;;;5065746;27;45346;-77
2022/12/22 11:13:39;;;;;;;3.85;2.25;;;17.20;52.40;;;;;;5065100;28;46787;-77
2022/12/22 11:16:10;;;;;;;4.18;2.05;;;17.10;52.30;;;;;;5065125;28;45299;-77
2022/12/22 11:18:50;;;;;;;6.25;2.17;;;17.20;52.40;;;;;;5065222;28;45320;-76
2022/12/22 11:21:20;;;;;;;4.43;2.63;;;17.10;52.30;;;;;;5065482;28;45179;-76
2022/12/22 11:23:49;;;;;;;5.40;2.28;;;17.10;52.40;;;;;;5064888;27;46911;-77
2022/12/22 11:26:19;;;;;;;6.03;2.35;;;17.10;53.10;;;;;;5064880;27;45137;-77
2022/12/22 11:29:06;;;;;;;5.07;2.20;;;17.10;52.50;;;;;;5065304;28;45376;-77
2022/12/22 11:31:51;;;;;;;4.50;2.20;;;17.10;52.50;;;;;;5061361;27;45289;-77
2022/12/22 11:34:26;;;;;;;5.65;2.40;;;17.10;52.40;;;;;;5064936;28;46661;-77
2022/12/22 11:37:02;;;;;;;3.38;2.08;;;17.10;52.50;;;;;;5062342;28;45467;-78
2022/12/22 11:39:36;;;;;;;5.45;2.55;;;17.10;52.50;;;;;;5065140;28;45319;-77
2022/12/22 11:42:06;;;;;;;4.47;2.22;;;17.10;52.50;;;;;;5064992;27;45337;-77
2022/12/22 11:44:41;;;;;;;5.43;2.50;;;17.10;52.50;;;;;;5065038;28;45457;-78
2022/12/22 11:47:25;;;;;;;4.95;2.25;;;17.10;52.60;;;;;;5064639;28;46533;-77
2022/12/22 11:50:06;;;;;;;5.18;2.13;;;17.10;52.60;;;;;;5065119;28;45125;-74
2022/12/22 11:52:41;;;;;;;4.13;2.10;;;17.10;52.70;;;;;;5065034;28;45243;-76
2022/12/22 11:55:14;;;;;;;4.72;2.00;;;17.10;52.60;;;;;;5064586;27;46663;-76
2022/12/22 11:57:48;;;;;;;3.90;2.00;;;17.10;52.60;;;;;;5064662;27;45404;-77
2022/12/22 12:00:15;;;;;;;5.75;2.08;;;17.10;52.70;;;;;;5064913;28;45366;-76
2022/12/22 12:03:11;;;;;;;5.00;2.30;;;17.10;52.70;;;;;;5064781;27;45308;-77
2022/12/22 12:06:03;;;;;;;3.88;1.77;;;17.00;52.70;;;;;;5064373;28;46354;-77
2022/12/22 12:08:34;;;;;;;4.28;1.90;;;17.00;52.70;;;;;;5063656;28;45293;-77
2022/12/22 12:11:06;;;;;;;6.28;2.03;;;17.00;52.60;;;;;;5063855;28;45204;-74
2022/12/22 12:13:35;;;;;;;4.65;1.88;;;17.00;52.60;;;;;;5063680;28;45385;-74
2022/12/22 12:16:06;;;;;;;4.07;1.92;;;17.00;52.70;;;;;;5062433;28;46778;-75
2022/12/22 12:19:01;;;;;;;4.90;1.88;;;17.00;52.70;;;;;;5064527;28;45294;-76
2022/12/22 12:21:29;;;;;;;4.50;2.17;;;17.00;52.70;;;;;;5063521;27;45323;-76
2022/12/22 12:24:29;;;;;;;5.07;2.10;;;17.10;52.70;;;;;;5063948;28;45417;-75
2022/12/22 12:26:59;;;;;;;3.45;1.75;;;17.10;52.70;;;;;;5070067;27;46657;-75
2022/12/22 12:29:27;;;;;;;3.72;2.00;;;17.10;52.60;;;;;;5063874;28;46257;-76
2022/12/22 12:31:58;;;;;;;4.43;1.85;;;17.10;52.70;;;;;;5063912;28;45419;-76
2022/12/22 12:34:25;;;;;;;4.97;2.10;;;17.10;52.70;;;;;;5064433;28;45181;-75
2022/12/22 12:36:57;;;;;;;5.00;2.03;;;17.10;52.70;;;;;;5063200;28;45509;-76
2022/12/22 12:39:28;;;;;;;4.53;1.88;;;17.10;52.70;;;;;;5064167;28;45335;-77
2022/12/22 12:41:59;;;;;;;5.15;1.85;;;17.10;52.70;;;;;;5063670;28;45283;-75
2022/12/22 12:44:27;;;;;;;4.40;2.08;;;17.10;52.70;;;;;;5062672;28;45454;-74
2022/12/22 12:47:06;;;;;;;6.70;1.88;;;17.10;52.80;;;;;;5055026;28;45248;-76
2022/12/22 12:50:01;;;;;;;8.48;2.10;;;17.00;52.80;;;;;;5057007;27;45478;-77
2022/12/22 12:53:14;;;;;;;4.32;1.95;;;17.00;52.90;;;;;;5043305;28;45373;-75
2022/12/22 12:56:05;;;;;;;5.28;1.83;;;17.00;53.00;;;;;;5057403;28;45599;-77
2022/12/22 12:58:58;;;;;;;5.80;1.92;;;17.00;53.00;;;;;;5092668;27;45169;-74
2022/12/22 13:01:58;;;;;;;3.22;1.70;;;17.00;53.00;;;;;;5148744;27;45293;-75
2022/12/22 13:05:02;;;;;;;5.13;2.10;;;17.00;53.70;;;;;;5148918;27;45283;-75
2022/12/22 13:08:09;;;;;;;5.28;1.73;;;17.00;53.20;;;;;;5044133;28;45120;-75
2022/12/22 13:10:38;;;;;;;6.60;1.55;;;17.00;53.20;;;;;;5032664;28;45457;-76
2022/12/22 13:13:06;;;;;;;6.78;1.88;;;17.00;53.30;;;;;;5043676;27;45521;-76
2022/12/22 13:15:34;;;;;;;5.68;2.35;;;17.00;53.40;;;;;;5043731;28;45313;-75
2022/12/22 13:18:01;;;;;;;5.00;2.17;;;17.00;53.40;;;;;;5059174;28;45272;-76
2022/12/22 13:20:29;;;;;;;5.53;2.03;;;17.00;53.40;;;;;;5066564;28;46659;-76
2022/12/22 13:22:57;;;;;;;4.32;1.77;;;17.00;53.40;;;;;;5065511;27;45174;-76
2022/12/22 13:25:25;;;;;;;4.43;1.52;;;17.00;53.40;;;;;;5081424;27;45186;-78
2022/12/22 13:27:51;;;;;;;8.52;2.05;;;17.00;53.40;;;;;;5062748;27;45431;-77
2022/12/22 13:30:21;;;;;;;5.65;1.95;;;17.00;53.50;;;;;;5063826;27;46260;-78
2022/12/22 13:32:48;;;;;;;7.10;2.35;;;17.00;53.40;;;;;;5063521;28;45406;-78
2022/12/22 13:35:17;;;;;;;6.68;1.98;;;17.00;53.40;;;;;;5063694;27;45299;-76
2022/12/22 13:37:45;;;;;;;7.03;1.80;;;17.00;53.40;;;;;;5063556;27;45357;-78
2022/12/22 13:40:20;;;;;;;4.07;1.70;;;17.00;53.30;;;;;;5063225;27;45560;-78
2022/12/22 13:42:48;;;;;;;6.65;1.88;;;17.00;53.20;;;;;;5063268;27;45332;-78
2022/12/22 13:45:25;;;;;;;7.05;1.77;;;17.00;53.20;;;;;;5063479;28;45293;-78
2022/12/22 13:47:52;;;;;;;3.85;1.50;;;17.10;53.20;;;;;;5063454;27;45473;-78
2022/12/22 13:50:20;;;;;;;3.47;1.73;;;17.00;53.20;;;;;;5063059;28;45603;-78
2022/12/22 13:52:48;;;;;;;4.95;1.80;;;17.00;53.20;;;;;;5063046;27;45258;-78
2022/12/22 13:55:15;;;;;;;5.53;2.00;;;17.10;53.20;;;;;;5066739;28;45236;-78
2022/12/22 13:57:42;;;;;;;5.28;1.88;;;17.00;53.20;;;;;;5066544;28;45345;-78
2022/12/22 14:00:20;;;;;;;4.75;1.50;;;17.10;53.20;;;;;;5065494;28;45519;-78
2022/12/22 14:02:47;;;;;;;5.35;1.60;;;17.00;53.10;;;;;;5065557;28;45348;-77
2022/12/22 14:05:15;;;;;;;5.10;1.95;;;17.00;53.20;;;;;;5065640;27;45216;-78
2022/12/22 14:08:02;;;;;;;3.83;1.60;;;17.00;53.20;;;;;;5066434;27;45480;-78
2022/12/22 14:10:34;;;;;;;5.55;1.70;;;17.00;53.20;;;;;;5065538;27;45394;-78
2022/12/22 14:13:02;;;;;;;5.47;1.65;;;17.00;53.20;;;;;;5065811;27;45291;-78
2022/12/22 14:15:31;;;;;;;3.72;1.75;;;17.00;53.20;;;;;;5066366;27;45325;-78
2022/12/22 14:17:57;;;;;;;4.32;1.35;;;17.00;53.30;;;;;;5066408;27;45146;-78
2022/12/22 14:20:26;;;;;;;4.10;1.75;;;17.00;53.30;;;;;;5065892;27;45487;-78
2022/12/22 14:22:54;;;;;;;3.25;1.77;;;17.00;53.30;;;;;;5065857;27;45309;-78
2022/12/22 14:25:21;;;;;;;3.63;1.50;;;17.00;53.30;;;;;;5066062;27;45239;-78
2022/12/22 14:27:49;;;;;;;4.50;1.83;;;17.00;53.30;;;;;;5065834;27;45269;-78
2022/12/22 14:30:17;;;;;;;2.42;1.40;;;17.00;53.30;;;;;;5065654;28;45298;-79
2022/12/22 14:32:46;;;;;;;2.92;1.50;;;17.00;53.40;;;;;;5065732;27;45522;-78
2022/12/22 14:35:25;;;;;;;2.90;1.55;;;16.90;53.30;;;;;;5066015;27;45393;-78
2022/12/22 14:37:53;;;;;;;5.50;1.80;;;16.90;53.30;;;;;;5066025;28;45403;-78
2022/12/22 14:40:32;;;;;;;4.03;1.30;;;16.90;53.30;;;;;;5063069;28;45696;-79
2022/12/22 14:43:00;;;;;;;7.90;1.85;;;16.90;53.40;;;;;;5065503;28;45211;-78
2022/12/22 14:45:27;;;;;;;3.63;1.80;;;16.90;53.40;;;;;;5065813;28;45343;-78
2022/12/22 14:47:55;;;;;;;4.40;1.55;;;16.90;53.40;;;;;;5066122;27;45424;-79
2022/12/22 14:50:23;;;;;;;5.72;1.80;;;16.90;53.40;;;;;;5065766;27;45475;-77
2022/12/22 14:52:50;;;;;;;2.45;1.25;;;16.90;53.40;;;;;;5065608;27;45263;-77
2022/12/22 14:55:28;;;;;;;4.30;1.38;;;16.90;53.40;;;;;;5065783;28;45396;-78
2022/12/22 14:57:56;;;;;;;4.40;1.70;;;16.90;53.40;;;;;;5065684;27;45462;-77
2022/12/22 15:00:32;;;;;;;4.93;1.88;;;16.90;53.40;;;;;;5065378;27;45304;-78
2022/12/22 15:03:01;;;;;;;2.15;1.10;;;16.90;53.40;;;;;;5065114;28;45117;-78
2022/12/22 15:05:30;;;;;;;4.60;1.85;;;16.90;53.40;;;;;;5065549;27;45265;-78
2022/12/22 15:07:57;;;;;;;4.45;1.98;;;16.90;53.40;;;;;;5066133;27;45476;-77
2022/12/22 15:10:25;;;;;;;3.45;1.30;;;16.90;53.40;;;;;;5065173;27;45163;-75
2022/12/22 15:12:58;;;;;;;4.65;2.05;;;16.80;53.40;;;;;;5064525;28;45302;-78
2022/12/22 15:15:24;;;;;;;3.40;1.45;;;16.80;53.40;;;;;;5064916;28;45246;-78
2022/12/22 15:17:52;;;;;;;2.08;1.25;;;16.80;53.40;;;;;;5065303;27;45188;-78
2022/12/22 15:20:21;;;;;;;3.53;1.30;;;16.80;53.30;;;;;;5065171;27;45419;-78
2022/12/22 15:22:48;;;;;;;4.15;1.63;;;16.80;53.40;;;;;;5065178;28;45166;-78
2022/12/22 15:25:15;;;;;;;3.22;1.63;;;16.80;53.40;;;;;;5062755;28;45199;-78
2022/12/22 15:27:43;;;;;;;3.08;1.50;;;16.80;53.40;;;;;;5065366;28;45260;-78
2022/12/22 15:30:18;;;;;;;4.05;1.42;;;16.80;53.40;;;;;;5065128;27;46915;-78
2022/12/22 15:32:45;;;;;;;2.85;1.40;;;16.80;53.30;;;;;;5065076;28;45326;-78
2022/12/22 15:35:16;;;;;;;2.78;1.33;;;16.80;53.40;;;;;;5065187;28;45234;-77
2022/12/22 15:37:44;;;;;;;2.35;1.40;;;16.80;53.40;;;;;;5065011;27;45422;-77
2022/12/22 15:40:18;;;;;;;6.18;1.75;;;16.80;53.40;;;;;;5064888;28;46345;-77
2022/12/22 15:42:45;;;;;;;2.63;1.20;;;16.80;53.40;;;;;;5065072;28;45241;-78
2022/12/22 15:45:17;;;;;;;3.55;1.27;;;16.80;53.40;;;;;;5065065;27;45279;-78
2022/12/22 15:47:45;;;;;;;4.28;1.17;;;16.80;53.40;;;;;;5065451;27;45316;-78
2022/12/22 15:50:15;;;;;;;4.65;1.55;;;16.80;53.40;;;;;;5064641;28;48573;-77
2022/12/22 15:52:47;;;;;;;3.72;1.40;;;16.80;53.40;;;;;;5064877;27;45255;-77
2022/12/22 15:55:14;;;;;;;3.75;1.42;;;16.80;53.40;;;;;;5064889;27;45210;-77
2022/12/22 15:57:41;;;;;;;3.42;1.50;;;16.80;53.40;;;;;;5064953;28;45226;-77
2022/12/22 16:00:10;;;;;;;3.35;1.35;;;16.80;53.40;;;;;;5064521;27;46627;-77
2022/12/22 16:02:37;;;;;;;3.33;1.42;;;16.80;53.40;;;;;;5064765;28;45296;-79
2022/12/22 16:05:05;;;;;;;2.80;1.50;;;16.70;53.40;;;;;;5064668;27;45215;-78
2022/12/22 16:07:32;;;;;;;5.10;1.30;;;16.70;53.40;;;;;;5064434;28;45177;-78
2022/12/22 16:10:00;;;;;;;4.35;1.35;;;16.70;53.40;;;;;;5064128;27;45767;-78
2022/12/22 16:12:27;;;;;;;2.83;1.60;;;16.70;53.40;;;;;;5064408;28;45385;-78
2022/12/22 16:14:55;;;;;;;2.80;1.33;;;16.70;53.40;;;;;;5064706;27;45249;-76
2022/12/22 16:17:22;;;;;;;2.20;1.23;;;16.70;53.40;;;;;;5063861;28;45455;-78
2022/12/22 16:19:49;;;;;;;2.45;1.23;;;16.70;53.40;;;;;;5064550;28;46422;-78
2022/12/22 16:22:18;;;;;;;1.98;1.08;;;16.70;53.50;;;;;;5064365;27;45376;-78
2022/12/22 16:24:46;;;;;;;5.72;1.50;;;16.70;53.40;;;;;;5064681;27;45313;-78
2022/12/22 16:27:15;;;;;;;3.80;1.35;;;16.70;54.00;;;;;;5063641;28;45173;-78
2022/12/22 16:29:44;;;;;;;2.63;1.60;;;16.70;53.50;;;;;;5064483;28;46575;-78
2022/12/22 16:32:16;;;;;;;2.88;1.20;;;16.80;53.30;;;;;;5064245;28;45261;-78
2022/12/22 16:34:43;;;;;;;2.10;1.10;;;16.90;53.10;;;;;;5061825;28;45302;-78
2022/12/22 16:37:10;;;;;;;8.55;1.13;;;17.00;52.90;;;;;;5064750;27;45232;-77
2022/12/22 16:39:37;;;;;;;7.38;1.60;;;17.00;52.80;;;;;;5064218;28;46687;-72
2022/12/22 16:42:04;;;;;;;5.22;2.05;;;17.20;53.00;;;;;;5064188;28;45321;-73
2022/12/22 16:44:32;;;;;;;9.20;1.75;;;17.30;52.90;;;;;;5064586;28;45441;-78
2022/12/22 16:46:59;;;;;;;4.00;2.05;;;17.40;52.80;;;;;;5064473;27;45350;-78